Latest Coastal Weather Observations for Wilsons Promontory

IDV60701

Issued at 7:52 pm EST Monday 4 May 2026 (issued every 10 minutes, with the page automatically refreshed every 10 minutes)

About coastal observations | Map of coastal stations | Coastal observations for VIC | Marine services | Other Formats
Station Details ID: 085096 Name: WILSONS PROMONTORY LIGHTHOUSE Lat: -39.13 Lon: 146.42 Height: 95.0 m
Data from the previous 72 hours. | See also: Recent months at Wilsons Promontory
Date/Time
EST
Wind Sea
Height
m
Swell Vis
km
Cloud Weather Temp
°C
Press
MSL
hPa
Rain since
9am
mm
Dir  Spd
kts
Gust
kts
Height
m
Period
s
Dir
04/07:30pm N 10 20 - - - - - - - 16.6 1009.4 0.0
04/07:00pm N 11 20 - - - - - - - 16.8 1009.3 0.0
04/06:30pm N 9 18 - - - - - - - 17.0 1009.1 0.0
04/06:00pm N 9 14 - - - - - - - 16.9 1009.0 0.0
04/05:30pm N 9 15 - - - - - - - 17.0 1008.8 0.0
04/05:00pm N 9 17 - - - - - - - 17.2 1008.7 0.0
04/04:30pm NNW 12 20 - - - - - - - 17.4 1008.7 0.0
04/04:00pm NNW 11 25 - - - - - - - 17.7 1008.6 0.0
04/03:30pm NNW 9 16 - - - - - - - 18.1 1008.7 0.0
04/03:00pm N 8 14 - - - - - - - 19.2 1008.6 0.0
04/02:30pm N 9 15 - - - - - - - 18.2 1008.6 0.0
04/02:00pm N 8 17 - - - - - - - 18.8 1008.7 0.0
04/01:30pm N 10 17 - - - - - - - 18.5 1008.9 0.0
04/01:00pm N 10 21 - - - - - - - 18.3 1009.1 0.0
04/12:30pm NNE 11 17 - - - - - - - 18.3 1009.5 0.0
04/12:00pm NNE 12 19 - - - - - - - 17.9 1009.9 0.0
04/11:30am NNE 12 17 - - - - - - - 17.6 1010.5 0.0
04/11:00am NE 10 16 - - - - - - - 17.2 1010.9 0.0
04/10:30am NNE 10 16 - - - - - - - 16.9 1011.0 0.0
04/10:00am NNE 12 16 - - - - - - - 15.9 1011.1 0.0
04/09:30am NNE 10 14 - - - - - - - 16.8 1011.4 0.0
04/09:00am NNE 9 16 - - - - - - - 17.3 1011.6 23.4
04/08:30am N 9 16 - - - - - - - 16.8 1011.6 23.4
04/08:00am N 9 15 - - - - - - - 15.9 1011.6 23.4
04/07:30am N 8 14 - - - - - - - 15.2 1011.2 23.4
04/07:00am N 9 14 - - - - - - - 14.7 1010.8 23.4
04/06:30am N 8 14 - - - - - - - 14.6 1010.8 23.4
04/06:00am NNW 12 19 - - - - - - - 15.0 1010.9 23.4
04/05:30am NNW 9 16 - - - - - - - 14.8 1010.9 23.4
04/05:00am NNW 9 19 - - - - - - - 14.8 1011.0 23.4
04/04:30am NNW 10 18 - - - - - - - 14.9 1011.0 23.4
04/04:00am NW 11 19 - - - - - - - 15.0 1011.0 23.4
04/03:30am NNW 14 25 - - - - - - - 15.0 1011.1 23.4
04/03:27am NNW 15 25 - - - - - - - 15.2 1011.1 23.4
04/03:26am NNW 15 25 - - - - - - - 15.2 - 23.4
04/03:00am NNW 10 19 - - - - - - - 15.1 1011.3 23.4
04/02:30am NNW 14 21 - - - - - - - 15.4 1011.5 23.4
04/02:00am NW 8 21 - - - - - - - 15.2 1011.4 23.4
04/01:30am NNE 6 13 - - - - - - - 15.4 1012.0 23.4
04/01:00am NNE 7 13 - - - - - - - 15.5 1011.9 23.4
04/12:30am N 7 15 - - - - - - - 15.6 1012.1 23.4
04/12:00am N 10 17 - - - - - - - 15.6 1012.0 23.4
 
Date/Time
EST
Wind Sea
Height
m
Swell Vis
km
Cloud Weather Temp
°C
Press
MSL
hPa
Rain since
9am
mm
Dir  Spd
kts
Gust
kts
Height
m
Period
s
Dir
03/11:30pm N 9 16 - - - - - - - 15.6 1011.9 23.4
03/11:00pm NNW 7 15 - - - - - - - 15.7 1011.1 23.4
03/10:30pm NNW 6 18 - - - - - - - 15.5 1012.2 23.4
03/10:00pm WNW 7 13 - - - - - - - 15.5 1011.9 23.4
03/09:30pm NNW 6 12 - - - - - - - 15.6 1012.1 23.4
03/09:00pm NNW 10 16 - - - - - - - 15.9 1012.1 23.4
03/08:30pm NW 11 15 - - - - - - - 15.7 1011.5 23.4
03/08:00pm WNW 14 17 - - - - - - - 15.8 1011.6 23.4
03/07:30pm WNW 12 14 - - - - - - - 15.8 1011.3 23.4
03/07:00pm NW 16 22 - - - - - - - 15.8 1011.4 23.4
03/06:30pm WNW 22 29 - - - - - - - 15.1 1010.9 21.8
03/06:04pm NW 21 31 - - - - - - - 15.1 1010.1 14.8
03/06:00pm NW 20 29 - - - - - - Recent precip. 15.0 1010.4 14.2
03/05:30pm WNW 15 30 - - - - - - - 15.3 1010.4 13.6
03/05:28pm WNW 15 30 - - - - - - - 15.4 - 13.4
03/05:27pm WNW 14 28 - - - - - - - 15.7 1010.3 13.4
03/05:26pm WNW 14 23 - - - - - - - 16.0 1010.3 13.4
03/05:00pm NNE 7 10 - - - - - - - 16.7 1009.9 13.4
03/04:30pm NE 8 11 - - - - - - - 16.5 1009.8 13.4
03/04:00pm NE 12 14 - - - - - - - 16.4 1009.9 13.4
03/03:30pm NE 11 14 - - - - - - - 16.5 1010.3 13.4
03/03:00pm NE 11 13 - - - - - - Recent precip. 16.3 1010.6 13.2
03/02:30pm NE 12 15 - - - - - - - 16.5 1010.4 13.2
03/02:00pm NE 12 16 - - - - - - - 16.5 1010.3 13.0
03/01:30pm NE 9 13 - - - - - - - 16.9 1011.3 12.6
03/01:00pm NNW 13 18 - - - - - - - 17.8 1012.3 7.2
03/12:30pm NNE 10 13 - - - - - - - 17.2 1012.1 1.4
03/12:00pm NNE 11 14 - - - - - - - 17.6 1011.5 0.0
03/11:30am NE 10 13 - - - - - - - 17.4 1012.0 0.0
03/11:00am NE 12 16 - - - - - - - 17.9 1011.9 0.0
03/10:30am NNE 14 19 - - - - - - - 17.6 1011.9 0.0
03/10:00am NNE 12 15 - - - - - - - 18.0 1012.3 0.0
03/09:30am NNE 9 12 - - - - - - - 18.2 1012.4 0.0
03/09:00am NNE 9 11 - - - - - - - 18.2 1013.1 0.4
03/08:30am NNE 7 9 - - - - - - - 18.9 1013.4 0.4
03/08:00am NNW 8 13 - - - - - - - 21.2 1013.5 0.4
03/07:30am NNE 10 13 - - - - - - - 18.7 1013.3 0.4
03/07:00am NNE 12 15 - - - - - - - 16.9 1013.1 0.4
03/06:30am NE 12 15 - - - - - - - 17.3 1012.9 0.4
03/06:00am NNE 11 14 - - - - - - Recent precip. 17.2 1013.0 0.4
03/05:30am NNE 11 15 - - - - - - - 18.0 1013.1 0.2
03/05:00am NNE 11 17 - - - - - - - 19.8 1013.2 0.0
03/04:30am NNE 10 14 - - - - - - - 20.4 1013.2 0.0
03/04:00am NNE 10 15 - - - - - - - 20.6 1013.6 0.0
03/03:30am NNE 11 16 - - - - - - - 20.3 1013.7 0.0
03/03:00am NNE 10 15 - - - - - - - 20.3 1013.8 0.0
03/02:30am NNE 10 16 - - - - - - - 19.7 1014.0 0.0
03/02:00am NNE 11 15 - - - - - - - 18.8 1014.3 0.0
03/01:30am NE 11 14 - - - - - - - 18.7 1014.7 0.0
03/01:00am NNE 12 14 - - - - - - - 19.0 1014.9 0.0
03/12:30am NNE 12 17 - - - - - - - 19.6 1015.1 0.0
03/12:00am NNE 11 14 - - - - - - - 19.1 1015.1 0.0
 
Date/Time
EST
Wind Sea
Height
m
Swell Vis
km
Cloud Weather Temp
°C
Press
MSL
hPa
Rain since
9am
mm
Dir  Spd
kts
Gust
kts
Height
m
Period
s
Dir
02/11:30pm NNE 12 17 - - - - - - - 18.7 1015.4 0.0
02/11:00pm NE 11 14 - - - - - - - 17.5 1015.8 0.0
02/10:30pm NE 12 15 - - - - - - - 17.7 1016.1 0.0
02/10:00pm NNE 12 16 - - - - - - - 18.9 1016.2 0.0
02/09:30pm NNE 14 18 - - - - - - - 19.6 1016.2 0.0
02/09:00pm NNE 13 19 - - - - - - - 19.9 1016.3 0.0
02/08:30pm NNE 12 19 - - - - - - - 20.6 1016.4 0.0
02/08:00pm NNE 12 19 - - - - - - - 20.4 1016.4 0.0
02/07:30pm N 13 19 - - - - - - - 20.8 1016.7 0.0
02/07:00pm NNE 11 16 - - - - - - - 20.7 1016.8 0.0
02/06:30pm NNE 11 15 - - - - - - - 20.7 1016.7 0.0
02/06:00pm NNE 9 12 - - - - - - - 20.4 1016.4 0.0
02/05:30pm NNE 8 10 - - - - - - - 18.5 1016.3 0.0
02/05:00pm NNE 10 12 - - - - - - - 17.9 1016.3 0.0
02/04:30pm NNE 7 10 - - - - - - - 19.1 1016.2 0.0
02/04:00pm NNE 10 13 - - - - - - - 19.3 1016.3 0.0
02/03:30pm NNE 10 13 - - - - - - - 19.1 1016.4 0.0
02/03:00pm NNE 9 14 - - - - - - - 21.6 1016.6 0.0
02/02:30pm NNE 9 13 - - - - - - - 21.1 1016.7 0.0
02/02:00pm NNE 10 16 - - - - - - - 19.5 1016.8 0.0
02/01:30pm NNE 10 13 - - - - - - - 18.4 1017.2 0.0
02/01:00pm NNE 8 13 - - - - - - - 19.2 1017.5 0.0
02/12:30pm NNE 8 14 - - - - - - - 20.8 1018.1 0.0
02/12:00pm NNE 9 13 - - - - - - - 21.2 1018.6 0.0
02/11:30am N 8 14 - - - - - - - 22.2 1019.0 0.0
02/11:00am NNE 9 13 - - - - - - - 20.9 1019.3 0.0
02/10:30am N 9 12 - - - - - - - 20.8 1019.5 0.0
02/10:00am N 8 11 - - - - - - - 20.6 1019.6 0.0
02/09:30am N 8 14 - - - - - - - 19.4 1019.7 0.0
02/09:00am N 9 13 - - - - - - - 19.0 1019.9 0.2
02/08:30am N 10 12 - - - - - - - 18.3 1019.8 0.2
02/08:00am N 11 14 - - - - - - - 19.2 1019.7 0.2
02/07:30am N 11 13 - - - - - - - 18.0 1019.6 0.2
02/07:00am NNE 10 11 - - - - - - - 18.3 1019.5 0.2
02/06:30am N 9 12 - - - - - - - 19.1 1019.5 0.2
02/06:00am NNE 10 11 - - - - - - - 19.1 1019.6 0.2
02/05:30am NNE 9 10 - - - - - - - 17.8 1019.5 0.2
02/05:00am NNE 10 11 - - - - - - - 17.5 1019.6 0.2
02/04:30am NNE 9 11 - - - - - - - 17.2 1019.6 0.2
02/04:00am NNE 11 12 - - - - - - - 16.9 1019.7 0.2
02/03:30am NNE 11 12 - - - - - - - 16.8 1019.7 0.2
02/03:00am NNE 12 13 - - - - - - - 16.6 1020.0 0.2
02/02:30am NNE 11 13 - - - - - - - 16.4 1020.3 0.2
02/02:00am NE 11 13 - - - - - - - 16.6 1020.7 0.2
02/01:30am NNE 11 13 - - - - - - - 16.4 1020.9 0.2
02/01:00am NNE 13 14 - - - - - - - 16.6 1021.2 0.2
02/12:30am NNE 13 16 - - - - - - - 16.6 1021.6 0.2
02/12:00am NE 13 15 - - - - - - - 16.5 1021.8 0.2
 
Date/Time
EST
Wind Sea
Height
m
Swell Vis
km
Cloud Weather Temp
°C
Press
MSL
hPa
Rain since
9am
mm
Dir  Spd
kts
Gust
kts
Height
m
Period
s
Dir
01/11:30pm NNE 13 15 - - - - - - - 17.0 1022.2 0.2
01/11:00pm NNE 14 17 - - - - - - - 17.2 1022.5 0.2
01/10:30pm NNE 13 15 - - - - - - - 18.0 1022.8 0.2
01/10:00pm NNE 14 17 - - - - - - - 18.3 1022.9 0.2
01/09:30pm NNE 13 16 - - - - - - - 18.5 1022.9 0.2
01/09:00pm NNE 12 14 - - - - - - - 19.7 1022.9 0.2
01/08:30pm NNE 11 14 - - - - - - - 19.6 1022.8 0.2
01/08:00pm NNE 10 15 - - - - - - - 20.9 1022.9 0.2

Other formats

Comma delimited format used in spreadsheet applications
http://www.bom.gov.au/fwo/IDV60701/IDV60701.94893.axf

JavaScript Object Notation format (JSON) in row-major order
http://www.bom.gov.au/fwo/IDV60701/IDV60701.94893.json

Data quality

Most of these data are generated automatically and are frequently updated. Quality checks on data are not normally performed. It is possible for incorrect values to appear. Refer to information at About Latest Weather Observations and please check the disclaimer before using these data.